Salida, California
Current Conditions -  °F | °C
As of 4:53 PM on Wednesday 22 Oct 2014 (Local Time) from KMOD Reporting Station
Clear Clear  
Wind Chill: 75°   Ceiling: Unl
Heat Index: 75°   Visibility: 10mi
Dew Point: 38°   Wind: 8mph
Humidity: 26%   Direction: 320°NW
Pressure: 29.99"   Gusts: NA
Location:  37.71°N, 121.09°W
Report Text: KMOD 222353Z 32007KT 10SM CLR 24/03 A2999 RMK AO2 SLP157 T02390033 10244 20183 56012
Loading
Personal Weather Stations






























Interactive Weather Map
Tropical Storm Tracking
New forecast layout! Learn more

10-Day Weather Forecast

Advertisements
Track Severe Weather on mobile